Time;durP1;ratioP1;P1;durP2;ratioP2;P2;SDS_P1;SDS_P2;PMS_P1;PMS_P2;Temp;Humidity;BMP_temperature;BMP_pressure;BME280_temperature;BME280_humidity;BME280_pressure;Samples;Min_cycle;Max_cycle;Signal;HPM_P1;HPM_P2
2022/02/17 00:01:26;0.00;0.00;0.62;0.00;0.00;0.62;2.30;1.17;;;22.10;29.80;;;;;;2242067;62;20370;-61
2022/02/17 00:04:12;0.00;0.00;0.62;0.00;0.00;0.62;1.80;1.23;;;22.10;29.80;;;;;;2242148;62;20630;-61
2022/02/17 00:06:57;0.00;0.00;0.62;0.00;0.00;0.62;3.20;1.53;;;22.10;29.80;;;;;;2241959;62;20588;-60
2022/02/17 00:09:41;0.00;0.00;0.62;0.00;0.00;0.62;3.03;1.20;;;22.10;29.80;;;;;;2242485;62;20814;-61
2022/02/17 00:12:26;0.00;0.00;0.62;0.00;0.00;0.62;3.80;1.57;;;22.20;29.90;;;;;;2241832;62;20362;-62
2022/02/17 00:15:11;0.00;0.00;0.62;0.00;0.00;0.62;1.50;1.10;;;22.20;30.00;;;;;;2241677;62;20397;-61
2022/02/17 00:17:56;0.00;0.00;0.62;0.00;0.00;0.62;2.77;1.43;;;22.20;30.00;;;;;;2241988;62;20370;-61
2022/02/17 00:20:42;0.00;0.00;0.62;0.00;0.00;0.62;1.63;1.07;;;22.20;30.00;;;;;;2241851;62;20358;-62
2022/02/17 00:23:27;0.00;0.00;0.62;0.00;0.00;0.62;1.67;1.00;;;22.20;30.00;;;;;;2241938;62;20434;-62
2022/02/17 00:26:14;0.00;0.00;0.62;0.00;0.00;0.62;2.00;1.00;;;22.20;30.00;;;;;;2241940;62;20362;-61
2022/02/17 00:28:59;0.00;0.00;0.62;0.00;0.00;0.62;1.90;1.20;;;22.20;30.00;;;;;;2241591;62;20438;-62
2022/02/17 00:31:44;0.00;0.00;0.62;0.00;0.00;0.62;1.90;1.07;;;22.20;30.10;;;;;;2242048;62;20379;-62
2022/02/17 00:34:29;0.00;0.00;0.62;0.00;0.00;0.62;2.20;1.40;;;22.20;30.10;;;;;;2241562;62;20387;-62
2022/02/17 00:37:15;0.00;0.00;0.62;0.00;0.00;0.62;4.03;1.17;;;22.20;30.10;;;;;;2241630;62;20362;-61
2022/02/17 00:39:59;0.00;0.00;0.62;0.00;0.00;0.62;2.03;1.10;;;22.20;30.00;;;;;;2241493;62;20378;-61
2022/02/17 00:42:45;0.00;0.00;0.62;0.00;0.00;0.62;2.03;1.10;;;22.20;30.10;;;;;;2241896;62;20379;-62
2022/02/17 00:45:30;0.00;0.00;0.62;0.00;0.00;0.62;1.80;1.20;;;22.20;30.10;;;;;;2241635;62;20726;-61
2022/02/17 00:48:15;0.00;0.00;0.62;0.00;0.00;0.62;2.03;1.20;;;22.20;30.10;;;;;;2241822;62;20370;-61
2022/02/17 00:51:01;0.00;0.00;0.62;0.00;0.00;0.62;2.37;0.97;;;22.20;30.10;;;;;;2241228;62;20362;-61
2022/02/17 00:53:47;0.00;0.00;0.62;0.00;0.00;0.62;2.07;1.10;;;22.20;30.10;;;;;;2241801;62;20402;-61
2022/02/17 00:56:32;0.00;0.00;0.62;0.00;0.00;0.62;1.90;1.00;;;22.20;30.10;;;;;;2241126;62;20945;-61
2022/02/17 00:59:16;0.00;0.00;0.62;0.00;0.00;0.62;1.80;0.93;;;22.30;30.20;;;;;;2241095;62;20718;-61
2022/02/17 01:02:01;0.00;0.00;0.62;0.00;0.00;0.62;1.87;1.20;;;22.20;30.10;;;;;;2241424;62;20366;-61
2022/02/17 01:04:47;0.00;0.00;0.62;0.00;0.00;0.62;2.33;1.20;;;22.30;30.20;;;;;;2241366;62;20412;-61
2022/02/17 01:07:31;0.00;0.00;0.62;0.00;0.00;0.62;1.77;1.13;;;22.30;30.20;;;;;;2241542;62;20366;-61
2022/02/17 01:10:18;0.00;0.00;0.62;0.00;0.00;0.62;1.80;1.00;;;22.20;30.10;;;;;;2241847;62;20394;-62
2022/02/17 01:13:03;0.00;0.00;0.62;0.00;0.00;0.62;1.90;1.00;;;22.30;30.10;;;;;;2241286;62;20371;-62
2022/02/17 01:15:48;0.00;0.00;0.62;0.00;0.00;0.62;1.70;1.10;;;22.30;30.20;;;;;;2241114;62;20406;-61
2022/02/17 01:18:33;0.00;0.00;0.62;0.00;0.00;0.62;1.70;1.00;;;22.30;30.10;;;;;;2241514;62;20663;-62
2022/02/17 01:21:18;0.00;0.00;0.62;0.00;0.00;0.62;1.80;0.90;;;22.30;30.10;;;;;;2241079;62;20439;-60
2022/02/17 01:24:03;0.00;0.00;0.62;0.00;0.00;0.62;1.93;1.00;;;22.30;30.10;;;;;;2241826;62;20455;-60
2022/02/17 01:26:49;0.00;0.00;0.62;0.00;0.00;0.62;2.13;1.20;;;22.30;30.10;;;;;;2241471;62;20366;-61
2022/02/17 01:29:36;0.00;0.00;0.62;0.00;0.00;0.62;1.50;0.80;;;22.30;30.10;;;;;;2241029;62;20763;-62
2022/02/17 01:32:21;0.00;0.00;0.62;0.00;0.00;0.62;1.80;0.90;;;22.30;30.00;;;;;;2241392;62;20771;-60
2022/02/17 01:35:07;0.00;0.00;0.62;0.00;0.00;0.62;2.10;1.20;;;22.30;30.00;;;;;;2241115;62;20366;-60
2022/02/17 01:37:53;0.00;0.00;0.62;0.00;0.00;0.62;1.63;1.00;;;22.30;30.00;;;;;;2241181;62;20362;-62
2022/02/17 01:40:39;0.00;0.00;0.62;0.00;0.00;0.62;4.43;1.10;;;22.30;30.00;;;;;;2241258;62;20378;-62
2022/02/17 01:43:26;0.00;0.00;0.62;0.00;0.00;0.62;1.27;0.70;;;22.30;30.00;;;;;;2240920;62;20815;-61
2022/02/17 01:46:10;0.00;0.00;0.62;0.00;0.00;0.62;1.57;0.87;;;22.30;30.00;;;;;;2241837;62;20410;-61
2022/02/17 01:48:37;0.00;0.00;0.62;0.00;0.00;0.62;2.20;0.97;;;22.30;30.00;;;;;;2241086;62;20375;-62
2022/02/17 01:51:04;0.00;0.00;0.62;0.00;0.00;0.62;1.77;0.90;;;22.30;30.00;;;;;;2241267;62;20470;-62
2022/02/17 01:53:49;0.00;0.00;0.62;0.00;0.00;0.62;1.97;0.90;;;22.30;30.00;;;;;;2241728;62;20361;-62
2022/02/17 01:56:36;0.00;0.00;0.62;0.00;0.00;0.62;2.70;1.10;;;22.30;29.90;;;;;;2241732;62;20419;-62
2022/02/17 01:59:27;0.00;0.00;0.62;0.00;0.00;0.62;1.80;1.07;;;22.30;29.90;;;;;;2241253;62;20434;-60
2022/02/17 02:02:14;0.00;0.00;0.62;0.00;0.00;0.62;1.87;1.17;;;22.30;29.90;;;;;;2241826;62;20721;-61
2022/02/17 02:04:59;0.00;0.00;0.62;0.00;0.00;0.62;2.13;1.33;;;22.30;29.90;;;;;;2240956;62;20410;-63
2022/02/17 02:07:44;0.00;0.00;0.62;0.00;0.00;0.62;5.30;1.60;;;22.30;29.90;;;;;;2241492;62;20637;-61
2022/02/17 02:10:41;0.00;0.00;0.62;0.00;0.00;0.62;1.80;0.87;;;22.30;29.90;;;;;;2241121;62;20381;-62
2022/02/17 02:13:26;0.00;0.00;0.62;0.00;0.00;0.62;1.70;0.90;;;22.30;29.90;;;;;;2240531;62;20378;-62
2022/02/17 02:16:12;0.00;0.00;0.62;0.00;0.00;0.62;1.80;0.97;;;22.30;29.90;;;;;;2241308;62;20363;-61
2022/02/17 02:18:57;0.00;0.00;0.62;0.00;0.00;0.62;1.90;0.80;;;22.30;29.90;;;;;;2241535;62;20426;-61
2022/02/17 02:21:42;0.00;0.00;0.62;0.00;0.00;0.62;2.50;1.23;;;22.30;29.80;;;;;;2240783;62;20410;-62
2022/02/17 02:24:28;0.00;0.00;0.62;0.00;0.00;0.62;3.00;1.07;;;22.30;29.80;;;;;;2241413;62;20362;-62
2022/02/17 02:27:15;0.00;0.00;0.62;0.00;0.00;0.62;1.50;1.10;;;22.30;29.70;;;;;;2240800;62;20627;-62
2022/02/17 02:30:01;0.00;0.00;0.62;0.00;0.00;0.62;2.00;1.20;;;22.30;29.70;;;;;;2241150;62;20394;-60
2022/02/17 02:32:49;0.00;0.00;0.62;0.00;0.00;0.62;1.93;1.10;;;22.30;30.20;;;;;;2241081;62;20367;-62
2022/02/17 02:35:34;0.00;0.00;0.62;0.00;0.00;0.62;1.80;0.90;;;22.30;29.70;;;;;;2240696;62;20575;-62
2022/02/17 02:38:21;0.00;0.00;0.62;0.00;0.00;0.62;1.70;1.20;;;22.30;29.70;;;;;;2241259;62;20382;-62
2022/02/17 02:41:05;0.00;0.00;0.62;0.00;0.00;0.62;2.33;1.10;;;22.30;29.70;;;;;;2241114;62;20362;-62
2022/02/17 02:44:16;0.00;0.00;0.62;0.00;0.00;0.62;2.90;0.80;;;22.30;29.70;;;;;;2241503;62;20362;-62
2022/02/17 02:47:08;0.00;0.00;0.62;0.00;0.00;0.62;2.07;1.17;;;22.30;29.70;;;;;;2241082;62;20378;-62
2022/02/17 02:49:58;0.00;0.00;0.62;0.00;0.00;0.62;1.67;1.10;;;22.30;29.60;;;;;;2240720;62;20386;-61
2022/02/17 02:52:42;0.00;0.00;0.62;0.00;0.00;0.62;2.33;0.90;;;22.30;29.60;;;;;;2241391;62;20370;-61
2022/02/17 02:55:28;0.00;0.00;0.62;0.00;0.00;0.62;2.37;1.00;;;22.30;29.60;;;;;;2241355;62;20358;-62
2022/02/17 02:58:16;0.00;0.00;0.62;0.00;0.00;0.62;3.07;0.90;;;22.30;29.60;;;;;;2240626;62;20579;-62
2022/02/17 03:01:01;0.00;0.00;0.62;0.00;0.00;0.62;1.80;0.80;;;22.30;29.60;;;;;;2241279;62;20615;-61
2022/02/17 03:03:48;0.00;0.00;0.62;0.00;0.00;0.62;1.40;0.80;;;22.30;29.50;;;;;;2241313;62;20591;-61
2022/02/17 03:06:32;0.00;0.00;0.62;0.00;0.00;0.62;2.27;1.17;;;22.30;29.60;;;;;;2240997;62;20763;-61
2022/02/17 03:09:17;0.00;0.00;0.62;0.00;0.00;0.62;1.60;0.93;;;22.30;29.50;;;;;;2241067;62;20423;-61
2022/02/17 03:12:06;0.00;0.00;0.62;0.00;0.00;0.62;1.90;1.00;;;22.30;29.60;;;;;;2241352;62;20363;-61
2022/02/17 03:14:51;0.00;0.00;0.62;0.00;0.00;0.62;2.27;0.93;;;22.30;29.50;;;;;;2241388;62;20370;-61
2022/02/17 03:17:42;0.00;0.00;0.62;0.00;0.00;0.62;1.90;0.97;;;22.30;29.50;;;;;;2240866;62;20394;-61
2022/02/17 03:20:27;0.00;0.00;0.62;0.00;0.00;0.62;1.50;0.80;;;22.30;29.50;;;;;;2240975;62;20428;-61
2022/02/17 03:23:11;0.00;0.00;0.62;0.00;0.00;0.62;1.90;1.00;;;22.30;29.60;;;;;;2241313;62;20438;-61
2022/02/17 03:25:57;0.00;0.00;0.62;0.00;0.00;0.62;1.80;1.00;;;22.30;29.50;;;;;;2241771;61;20358;-61
2022/02/17 03:28:43;0.00;0.00;0.62;0.00;0.00;0.62;2.73;1.53;;;22.30;29.50;;;;;;2241362;62;20761;-61
2022/02/17 03:31:29;0.00;0.00;0.62;0.00;0.00;0.62;2.13;0.90;;;22.30;29.50;;;;;;2241787;62;20370;-61
2022/02/17 03:34:19;0.00;0.00;0.62;0.00;0.00;0.62;1.97;1.10;;;22.30;29.50;;;;;;2241632;62;20347;-62
2022/02/17 03:37:05;0.00;0.00;0.62;0.00;0.00;0.62;2.50;1.43;;;22.30;29.50;;;;;;2241930;62;20370;-61
2022/02/17 03:39:51;0.00;0.00;0.62;0.00;0.00;0.62;2.20;0.80;;;22.30;29.50;;;;;;2241657;62;20663;-61
2022/02/17 03:42:47;0.00;0.00;0.62;0.00;0.00;0.62;1.90;1.10;;;22.30;29.50;;;;;;2241462;62;20386;-60
2022/02/17 03:45:33;0.00;0.00;0.62;0.00;0.00;0.62;2.13;0.83;;;22.30;29.50;;;;;;2242096;62;20383;-61
2022/02/17 03:48:27;0.00;0.00;0.62;0.00;0.00;0.62;1.60;1.03;;;22.30;29.50;;;;;;2241330;62;20382;-62
2022/02/17 03:51:17;0.00;0.00;0.62;0.00;0.00;0.62;2.20;1.20;;;22.30;29.50;;;;;;2241703;62;20361;-62
2022/02/17 03:54:02;0.00;0.00;0.62;0.00;0.00;0.62;1.63;1.03;;;22.30;29.50;;;;;;2241378;62;20354;-62
2022/02/17 03:56:48;0.00;0.00;0.62;0.00;0.00;0.62;2.20;1.20;;;22.30;29.50;;;;;;2241280;62;21003;-61
2022/02/17 03:59:58;0.00;0.00;0.62;0.00;0.00;0.62;2.17;0.93;;;22.30;29.40;;;;;;2241645;62;20382;-62
2022/02/17 04:02:44;0.00;0.00;0.62;0.00;0.00;0.62;4.30;1.20;;;22.30;29.50;;;;;;2241703;62;20689;-60
2022/02/17 04:05:30;0.00;0.00;0.62;0.00;0.00;0.62;2.40;1.17;;;22.30;29.40;;;;;;2241629;62;20371;-62
2022/02/17 04:08:20;0.00;0.00;0.62;0.00;0.00;0.62;1.97;1.17;;;22.30;29.40;;;;;;2241555;62;20773;-61
2022/02/17 04:11:05;0.00;0.00;0.62;0.00;0.00;0.62;1.60;0.80;;;22.30;29.40;;;;;;2241590;62;20419;-61
2022/02/17 04:13:55;0.00;0.00;0.62;0.00;0.00;0.62;2.87;1.20;;;22.30;29.40;;;;;;2241925;62;20750;-61
2022/02/17 04:16:51;0.00;0.00;0.62;0.00;0.00;0.62;1.43;0.80;;;22.30;29.40;;;;;;2241379;62;20726;-60
2022/02/17 04:20:07;0.00;0.00;0.62;0.00;0.00;0.62;1.97;1.00;;;22.30;29.40;;;;;;2240977;62;20422;-62
2022/02/17 04:22:59;0.00;0.00;0.62;0.00;0.00;0.62;1.77;1.10;;;22.30;29.40;;;;;;2241709;62;20442;-61
2022/02/17 04:25:52;0.00;0.00;0.62;0.00;0.00;0.62;1.90;1.00;;;22.30;29.40;;;;;;2241571;62;20351;-61
2022/02/17 04:28:57;0.00;0.00;0.62;0.00;0.00;0.62;2.03;1.10;;;22.30;29.30;;;;;;2241694;62;20382;-62
2022/02/17 04:31:46;0.00;0.00;0.62;0.00;0.00;0.62;1.63;0.90;;;22.30;29.30;;;;;;2241531;62;20601;-61
2022/02/17 04:34:30;0.00;0.00;0.62;0.00;0.00;0.62;2.10;1.20;;;22.20;29.30;;;;;;2241169;62;20350;-62
2022/02/17 04:37:30;0.00;0.00;0.62;0.00;0.00;0.62;2.90;1.57;;;22.30;29.30;;;;;;2241325;62;20650;-60
2022/02/17 04:40:15;0.00;0.00;0.62;0.00;0.00;0.62;1.60;1.00;;;22.30;29.30;;;;;;2241274;62;20750;-60
2022/02/17 04:43:11;0.00;0.00;0.62;0.00;0.00;0.62;2.37;1.20;;;22.30;29.30;;;;;;2241502;62;20422;-60
2022/02/17 04:45:55;0.00;0.00;0.62;0.00;0.00;0.62;2.17;1.00;;;22.30;29.80;;;;;;2241228;62;20602;-62
2022/02/17 04:48:41;0.00;0.00;0.62;0.00;0.00;0.62;2.50;1.20;;;22.30;29.20;;;;;;2240853;62;20387;-62
2022/02/17 04:51:29;0.00;0.00;0.62;0.00;0.00;0.62;1.43;0.87;;;22.20;29.10;;;;;;2241615;62;20607;-62
2022/02/17 04:54:17;0.00;0.00;0.62;0.00;0.00;0.62;2.17;1.10;;;22.30;29.20;;;;;;2241498;62;20410;-61
2022/02/17 04:57:06;0.00;0.00;0.62;0.00;0.00;0.62;2.27;0.90;;;22.30;29.20;;;;;;2240866;62;20378;-61
2022/02/17 04:59:55;0.00;0.00;0.62;0.00;0.00;0.62;2.50;1.10;;;22.30;29.10;;;;;;2241556;62;20374;-61
2022/02/17 05:02:40;0.00;0.00;0.62;0.00;0.00;0.62;3.30;1.40;;;22.30;29.10;;;;;;2241828;62;20371;-61
2022/02/17 05:05:48;0.00;0.00;0.62;0.00;0.00;0.62;5.27;0.90;;;22.30;29.10;;;;;;2241787;62;20354;-59
2022/02/17 05:08:33;0.00;0.00;0.62;0.00;0.00;0.62;2.17;1.00;;;22.20;29.10;;;;;;2241866;62;20386;-61
2022/02/17 05:11:20;0.00;0.00;0.62;0.00;0.00;0.62;3.30;1.20;;;22.20;29.10;;;;;;2240997;62;20516;-59
2022/02/17 05:14:07;0.00;0.00;0.62;0.00;0.00;0.62;2.20;0.87;;;22.20;29.10;;;;;;2241592;62;20378;-61
2022/02/17 05:16:51;0.00;0.00;0.62;0.00;0.00;0.62;3.60;1.73;;;22.20;29.10;;;;;;2241412;62;20431;-62
2022/02/17 05:19:36;0.00;0.00;0.62;0.00;0.00;0.62;3.50;1.50;;;22.20;28.80;;;;;;2241591;62;20431;-62
2022/02/17 05:22:40;0.00;0.00;0.62;0.00;0.00;0.62;6.47;1.90;;;22.20;28.20;;;;;;2241473;62;20440;-62
2022/02/17 05:25:34;0.00;0.00;0.62;0.00;0.00;0.62;3.73;2.00;;;22.20;27.90;;;;;;2240786;62;20762;-62
2022/02/17 05:28:33;0.00;0.00;0.62;0.00;0.00;0.62;4.30;1.63;;;22.10;27.60;;;;;;2241351;62;20742;-62
2022/02/17 05:31:41;0.00;0.00;0.62;0.00;0.00;0.62;4.33;1.30;;;22.10;27.90;;;;;;2241247;62;20375;-60
2022/02/17 05:34:50;0.00;0.00;0.62;0.00;0.00;0.62;7.33;1.73;;;22.00;28.00;;;;;;2241282;62;20824;-59
2022/02/17 05:38:03;0.00;0.00;0.62;0.00;0.00;0.62;2.97;1.20;;;22.00;28.00;;;;;;2240367;62;20370;-60
2022/02/17 05:41:06;0.00;0.00;0.62;0.00;0.00;0.62;3.00;1.70;;;22.00;28.00;;;;;;2241261;62;20418;-59
2022/02/17 05:43:52;0.00;0.00;0.62;0.00;0.00;0.62;3.60;1.37;;;22.00;28.00;;;;;;2241977;62;20370;-61
2022/02/17 05:46:36;0.00;0.00;0.62;0.00;0.00;0.62;3.23;1.43;;;22.00;28.00;;;;;;2241341;62;20374;-60
2022/02/17 05:49:21;0.00;0.00;0.62;0.00;0.00;0.62;2.00;1.33;;;22.00;28.00;;;;;;2241293;62;20418;-60
2022/02/17 05:52:06;0.00;0.00;0.62;0.00;0.00;0.62;3.07;1.47;;;22.00;28.00;;;;;;2241476;62;20362;-61
2022/02/17 05:54:51;0.00;0.00;0.62;0.00;0.00;0.62;3.00;1.43;;;22.00;28.00;;;;;;2241661;62;20448;-61
2022/02/17 05:57:35;0.00;0.00;0.62;0.00;0.00;0.62;3.00;1.30;;;22.00;28.00;;;;;;2242102;62;20496;-61
2022/02/17 06:00:22;0.00;0.00;0.62;0.00;0.00;0.62;3.63;1.50;;;22.00;28.00;;;;;;2241693;62;20386;-61
2022/02/17 06:03:06;0.00;0.00;0.62;0.00;0.00;0.62;4.77;1.47;;;22.00;28.00;;;;;;2241322;62;20739;-60
2022/02/17 06:05:51;0.00;0.00;0.62;0.00;0.00;0.62;5.20;1.73;;;22.00;28.00;;;;;;2241794;62;20706;-61
2022/02/17 06:08:35;0.00;0.00;0.62;0.00;0.00;0.62;3.50;1.40;;;22.00;28.00;;;;;;2241460;62;20782;-61
2022/02/17 06:11:20;0.00;0.00;0.62;0.00;0.00;0.62;2.87;1.73;;;22.00;28.00;;;;;;2241527;62;20401;-62
2022/02/17 06:14:05;0.00;0.00;0.62;0.00;0.00;0.62;3.37;1.53;;;22.00;28.00;;;;;;2241823;62;20358;-60
2022/02/17 06:16:50;0.00;0.00;0.62;0.00;0.00;0.62;3.30;1.57;;;22.00;28.00;;;;;;2241222;62;20366;-60
2022/02/17 06:19:35;0.00;0.00;0.62;0.00;0.00;0.62;3.57;1.50;;;22.00;28.00;;;;;;2241701;62;20378;-62
2022/02/17 06:22:19;0.00;0.00;0.62;0.00;0.00;0.62;2.43;1.53;;;22.00;28.00;;;;;;2241384;62;20747;-61
2022/02/17 06:25:06;0.00;0.00;0.62;0.00;0.00;0.62;3.03;1.90;;;22.00;28.00;;;;;;2241151;62;20718;-63
2022/02/17 06:27:52;0.00;0.00;0.62;0.00;0.00;0.62;2.63;1.53;;;22.00;28.00;;;;;;2241585;62;20373;-62
2022/02/17 06:30:36;0.00;0.00;0.62;0.00;0.00;0.62;3.40;1.40;;;22.00;28.00;;;;;;2241111;62;20434;-62
2022/02/17 06:33:23;0.00;0.00;0.62;0.00;0.00;0.62;4.27;2.00;;;21.90;27.90;;;;;;2241403;62;20365;-61
2022/02/17 06:36:09;0.00;0.00;0.62;0.00;0.00;0.62;4.13;1.60;;;21.90;27.90;;;;;;2241598;62;20363;-61
2022/02/17 06:38:54;0.00;0.00;0.62;0.00;0.00;0.62;3.37;1.30;;;21.90;27.90;;;;;;2241241;62;20806;-61
2022/02/17 06:41:40;0.00;0.00;0.62;0.00;0.00;0.62;3.63;2.07;;;21.90;27.90;;;;;;2241477;62;20402;-61
2022/02/17 06:44:25;0.00;0.00;0.62;0.00;0.00;0.62;1.97;1.17;;;21.90;27.90;;;;;;2241378;62;20402;-61
2022/02/17 06:47:09;0.00;0.00;0.62;0.00;0.00;0.62;1.90;1.20;;;21.90;27.90;;;;;;2240984;62;20385;-62
2022/02/17 06:49:55;0.00;0.00;0.62;0.00;0.00;0.62;5.23;1.57;;;21.90;27.90;;;;;;2241674;62;20394;-62
2022/02/17 06:52:41;0.00;0.00;0.62;0.00;0.00;0.62;2.37;1.40;;;21.90;27.90;;;;;;2241469;62;20366;-62
2022/02/17 06:55:25;0.00;0.00;0.62;0.00;0.00;0.62;2.60;1.20;;;21.90;27.90;;;;;;2241032;62;20698;-62
2022/02/17 06:58:11;0.00;0.00;0.62;0.00;0.00;0.62;2.07;1.33;;;21.90;27.90;;;;;;2241461;62;20389;-62
2022/02/17 07:00:55;0.00;0.00;0.62;0.00;0.00;0.62;2.63;0.90;;;21.90;27.90;;;;;;2241108;62;20350;-61
2022/02/17 07:03:40;0.00;0.00;0.62;0.00;0.00;0.62;3.57;1.40;;;21.90;27.90;;;;;;2241429;62;20467;-62
2022/02/17 07:06:26;0.00;0.00;0.62;0.00;0.00;0.62;2.90;1.30;;;21.90;27.90;;;;;;2241237;62;20355;-62
2022/02/17 07:09:10;0.00;0.00;0.62;0.00;0.00;0.62;2.77;1.10;;;21.90;27.90;;;;;;2240924;62;20405;-60
2022/02/17 07:11:55;0.00;0.00;0.62;0.00;0.00;0.62;2.67;1.30;;;21.90;27.90;;;;;;2241571;62;20775;-62
2022/02/17 07:14:40;0.00;0.00;0.62;0.00;0.00;0.62;2.43;1.43;;;21.90;27.90;;;;;;2241142;62;20763;-62
2022/02/17 07:17:25;0.00;0.00;0.62;0.00;0.00;0.62;2.03;1.13;;;21.90;27.90;;;;;;2240994;62;20407;-61
2022/02/17 07:20:10;0.00;0.00;0.62;0.00;0.00;0.62;2.20;1.30;;;21.90;27.90;;;;;;2241717;62;20373;-62
2022/02/17 07:22:58;0.00;0.00;0.62;0.00;0.00;0.62;2.33;1.20;;;21.90;27.90;;;;;;2241168;62;20399;-61
2022/02/17 07:25:43;0.00;0.00;0.62;0.00;0.00;0.62;2.30;1.10;;;21.90;27.90;;;;;;2241358;62;20365;-62
2022/02/17 07:28:28;0.00;0.00;0.62;0.00;0.00;0.62;2.37;1.10;;;21.90;27.90;;;;;;2241432;62;20382;-62
2022/02/17 07:31:13;0.00;0.00;0.62;0.00;0.00;0.62;2.47;1.07;;;21.90;27.90;;;;;;2240973;62;20410;-62
2022/02/17 07:33:58;0.00;0.00;0.62;0.00;0.00;0.62;1.70;1.20;;;21.90;27.80;;;;;;2241680;62;20391;-62
2022/02/17 07:36:44;0.00;0.00;0.62;0.00;0.00;0.62;4.03;1.40;;;21.90;27.70;;;;;;2241326;62;20467;-63
2022/02/17 07:39:29;0.00;0.00;0.62;0.00;0.00;0.62;2.27;1.10;;;21.90;27.80;;;;;;2241064;62;20377;-62
2022/02/17 07:42:15;0.00;0.00;0.62;0.00;0.00;0.62;1.93;1.10;;;21.90;27.70;;;;;;2241537;62;20367;-61
2022/02/17 07:45:00;0.00;0.00;0.62;0.00;0.00;0.62;2.67;1.30;;;21.90;27.70;;;;;;2241087;62;20442;-62
2022/02/17 07:47:45;0.00;0.00;0.62;0.00;0.00;0.62;2.00;1.27;;;21.90;27.70;;;;;;2241122;62;20377;-62
2022/02/17 07:50:32;0.00;0.00;0.62;0.00;0.00;0.62;1.90;0.83;;;21.90;27.70;;;;;;2241522;62;20446;-61
2022/02/17 07:53:17;0.00;0.00;0.62;0.00;0.00;0.62;2.30;1.30;;;21.90;27.70;;;;;;2241254;62;20370;-62
2022/02/17 07:56:03;0.00;0.00;0.62;0.00;0.00;0.62;4.00;1.30;;;21.90;27.70;;;;;;2241654;62;20439;-61
2022/02/17 07:58:48;0.00;0.00;0.62;0.00;0.00;0.62;2.17;1.27;;;21.90;27.70;;;;;;2241343;62;20385;-62
2022/02/17 08:01:35;0.00;0.00;0.62;0.00;0.00;0.62;2.20;1.07;;;21.90;27.70;;;;;;2240816;62;20676;-61
2022/02/17 08:04:20;0.00;0.00;0.62;0.00;0.00;0.62;2.03;1.23;;;21.90;27.60;;;;;;2241553;62;20373;-61
2022/02/17 08:07:06;0.00;0.00;0.62;0.00;0.00;0.62;1.47;0.80;;;21.90;27.60;;;;;;2241196;62;20446;-62
2022/02/17 08:09:51;0.00;0.00;0.62;0.00;0.00;0.62;2.70;1.20;;;21.90;27.60;;;;;;2241136;62;20389;-62
2022/02/17 08:12:40;0.00;0.00;0.62;0.00;0.00;0.62;2.20;1.03;;;21.90;27.60;;;;;;2241906;62;20410;-62
2022/02/17 08:15:25;0.00;0.00;0.62;0.00;0.00;0.62;2.30;1.00;;;21.90;27.60;;;;;;2241898;62;20746;-61
2022/02/17 08:18:09;0.00;0.00;0.62;0.00;0.00;0.62;2.47;0.90;;;21.90;27.50;;;;;;2242235;62;20410;-62
2022/02/17 08:20:54;0.00;0.00;0.62;0.00;0.00;0.62;3.60;1.30;;;21.90;27.50;;;;;;2242004;62;20795;-61
2022/02/17 08:23:38;0.00;0.00;0.62;0.00;0.00;0.62;2.73;1.17;;;21.90;27.50;;;;;;2241622;62;20366;-61
2022/02/17 08:26:23;0.00;0.00;0.62;0.00;0.00;0.62;2.47;1.10;;;21.90;27.50;;;;;;2242330;62;20358;-62
2022/02/17 08:29:09;0.00;0.00;0.62;0.00;0.00;0.62;3.00;1.43;;;21.90;27.50;;;;;;2241747;62;20434;-62
2022/02/17 08:31:55;0.00;0.00;0.62;0.00;0.00;0.62;3.10;1.10;;;21.90;27.50;;;;;;2241811;62;20366;-62
2022/02/17 08:34:39;0.00;0.00;0.62;0.00;0.00;0.62;3.00;0.83;;;21.90;27.50;;;;;;2241724;62;20358;-60
2022/02/17 08:37:24;0.00;0.00;0.62;0.00;0.00;0.62;1.90;1.47;;;21.90;27.40;;;;;;2241573;62;20762;-62
2022/02/17 08:40:11;0.00;0.00;0.62;0.00;0.00;0.62;2.43;1.30;;;21.90;27.40;;;;;;2242079;62;20388;-62
2022/02/17 08:43:08;0.00;0.00;0.62;0.00;0.00;0.62;2.17;1.20;;;21.90;27.40;;;;;;2241598;62;20361;-62
2022/02/17 08:45:54;0.00;0.00;0.62;0.00;0.00;0.62;2.07;1.00;;;21.90;27.40;;;;;;2241486;62;20362;-61
2022/02/17 08:48:40;0.00;0.00;0.62;0.00;0.00;0.62;2.27;1.27;;;21.90;27.40;;;;;;2241936;62;20507;-62
2022/02/17 08:51:29;0.00;0.00;0.62;0.00;0.00;0.62;5.70;1.27;;;21.90;27.40;;;;;;2241783;62;20421;-62
2022/02/17 08:54:14;0.00;0.00;0.62;0.00;0.00;0.62;3.50;1.10;;;21.90;27.30;;;;;;2241865;62;20422;-62
2022/02/17 08:56:58;0.00;0.00;0.62;0.00;0.00;0.62;1.67;0.93;;;21.90;27.30;;;;;;2241789;62;20514;-62
2022/02/17 08:59:43;0.00;0.00;0.62;0.00;0.00;0.62;2.03;0.87;;;21.90;27.40;;;;;;2241906;62;20382;-62
2022/02/17 09:02:29;0.00;0.00;0.62;0.00;0.00;0.62;1.80;0.93;;;21.90;27.40;;;;;;2242222;62;20374;-62
2022/02/17 09:05:14;0.00;0.00;0.62;0.00;0.00;0.62;2.60;1.17;;;21.90;27.40;;;;;;2241612;62;20707;-62
2022/02/17 09:07:59;0.00;0.00;0.62;0.00;0.00;0.62;1.73;0.90;;;21.90;27.30;;;;;;2241416;62;20366;-61
2022/02/17 09:10:43;0.00;0.00;0.62;0.00;0.00;0.62;2.40;1.00;;;21.90;27.30;;;;;;2241920;62;20826;-61
2022/02/17 09:13:30;0.00;0.00;0.62;0.00;0.00;0.62;3.10;1.17;;;21.90;27.30;;;;;;2241932;62;20767;-61
2022/02/17 09:16:14;0.00;0.00;0.62;0.00;0.00;0.62;2.30;1.10;;;21.90;27.30;;;;;;2241700;62;20362;-62
2022/02/17 09:19:00;0.00;0.00;0.62;0.00;0.00;0.62;2.40;1.23;;;21.90;27.30;;;;;;2241731;62;20495;-62
2022/02/17 09:21:45;0.00;0.00;0.62;0.00;0.00;0.62;2.47;0.90;;;21.90;27.30;;;;;;2241501;62;20358;-62
2022/02/17 09:24:29;0.00;0.00;0.62;0.00;0.00;0.62;2.43;0.93;;;21.90;27.30;;;;;;2241773;62;20389;-61
2022/02/17 09:27:14;0.00;0.00;0.62;0.00;0.00;0.62;1.90;1.07;;;21.90;27.30;;;;;;2241509;62;20346;-60
2022/02/17 09:29:59;0.00;0.00;0.62;0.00;0.00;0.62;2.43;1.10;;;21.90;27.30;;;;;;2241392;62;20432;-61
2022/02/17 09:32:43;0.00;0.00;0.62;0.00;0.00;0.62;1.80;0.77;;;21.90;27.30;;;;;;2241705;62;20362;-61
2022/02/17 09:35:29;0.00;0.00;0.62;0.00;0.00;0.62;1.97;1.23;;;21.90;27.30;;;;;;2241728;62;20464;-62
2022/02/17 09:38:15;0.00;0.00;0.62;0.00;0.00;0.62;2.13;0.80;;;21.90;27.30;;;;;;2241280;62;20370;-62
2022/02/17 09:41:01;0.00;0.00;0.62;0.00;0.00;0.62;1.83;1.50;;;21.90;27.30;;;;;;2241812;62;20386;-61
2022/02/17 09:43:47;0.00;0.00;0.62;0.00;0.00;0.62;2.70;1.03;;;21.90;27.30;;;;;;2241432;62;20422;-62
2022/02/17 09:46:33;0.00;0.00;0.62;0.00;0.00;0.62;2.00;0.70;;;21.90;27.30;;;;;;2241478;62;20374;-61
2022/02/17 09:49:19;0.00;0.00;0.62;0.00;0.00;0.62;2.17;0.90;;;21.90;27.30;;;;;;2241494;62;20382;-60
2022/02/17 09:52:08;0.00;0.00;0.62;0.00;0.00;0.62;1.83;1.17;;;21.90;27.30;;;;;;2241174;62;20682;-61
2022/02/17 09:54:54;0.00;0.00;0.62;0.00;0.00;0.62;2.10;0.90;;;21.90;27.30;;;;;;2241854;62;20484;-61
2022/02/17 09:57:39;0.00;0.00;0.62;0.00;0.00;0.62;2.40;1.10;;;22.00;27.40;;;;;;2241674;62;20449;-60
2022/02/17 10:00:24;0.00;0.00;0.62;0.00;0.00;0.62;2.13;1.10;;;22.00;27.40;;;;;;2240943;62;20398;-61
2022/02/17 10:03:23;0.00;0.00;0.62;0.00;0.00;0.62;1.83;1.03;;;22.00;27.40;;;;;;2241928;62;20370;-62
2022/02/17 10:06:10;0.00;0.00;0.62;0.00;0.00;0.62;3.13;1.17;;;22.00;27.40;;;;;;2241343;62;20731;-62
2022/02/17 10:09:06;0.00;0.00;0.62;0.00;0.00;0.62;2.63;1.30;;;22.00;27.30;;;;;;2241657;62;20402;-61
2022/02/17 10:11:51;0.00;0.00;0.62;0.00;0.00;0.62;3.03;1.10;;;22.00;27.30;;;;;;2241689;62;20382;-61
2022/02/17 10:14:40;0.00;0.00;0.62;0.00;0.00;0.62;2.10;0.83;;;22.00;27.30;;;;;;2241279;62;20640;-61
2022/02/17 10:17:24;0.00;0.00;0.62;0.00;0.00;0.62;1.40;0.70;;;22.00;27.30;;;;;;2241541;62;20362;-62
2022/02/17 10:20:09;0.00;0.00;0.62;0.00;0.00;0.62;1.60;0.77;;;22.00;27.30;;;;;;2241557;62;20378;-61
2022/02/17 10:23:06;0.00;0.00;0.62;0.00;0.00;0.62;1.30;0.80;;;22.10;27.40;;;;;;2241524;62;20653;-62
2022/02/17 10:26:09;0.00;0.00;0.62;0.00;0.00;0.62;1.80;1.00;;;22.10;27.30;;;;;;2241707;62;20375;-62
2022/02/17 10:28:57;0.00;0.00;0.62;0.00;0.00;0.62;1.73;0.87;;;22.10;27.30;;;;;;2241055;62;20608;-62
2022/02/17 10:31:44;0.00;0.00;0.62;0.00;0.00;0.62;2.17;0.90;;;22.10;27.40;;;;;;2241636;62;20836;-62
2022/02/17 10:34:29;0.00;0.00;0.62;0.00;0.00;0.62;1.67;1.07;;;22.10;27.90;;;;;;2241487;62;20358;-62
2022/02/17 10:37:13;0.00;0.00;0.62;0.00;0.00;0.62;2.10;0.90;;;22.10;27.40;;;;;;2241094;62;20746;-62
2022/02/17 10:40:14;0.00;0.00;0.62;0.00;0.00;0.62;2.27;1.10;;;22.10;27.40;;;;;;2241639;62;20378;-61
2022/02/17 10:43:02;0.00;0.00;0.62;0.00;0.00;0.62;2.17;1.07;;;22.10;27.50;;;;;;2241356;62;20474;-62
2022/02/17 10:45:49;0.00;0.00;0.62;0.00;0.00;0.62;1.97;0.90;;;22.10;27.50;;;;;;2241499;62;20460;-62
2022/02/17 10:48:34;0.00;0.00;0.62;0.00;0.00;0.62;1.93;1.10;;;22.20;27.50;;;;;;2241207;62;20379;-61
2022/02/17 10:51:19;0.00;0.00;0.62;0.00;0.00;0.62;2.43;1.13;;;22.20;27.50;;;;;;2241102;62;20630;-61
2022/02/17 10:54:04;0.00;0.00;0.62;0.00;0.00;0.62;2.43;1.00;;;22.20;27.50;;;;;;2241686;62;20640;-61
2022/02/17 10:56:51;0.00;0.00;0.62;0.00;0.00;0.62;1.80;0.80;;;22.20;27.50;;;;;;2241521;62;20366;-62
2022/02/17 11:02:42;0.00;0.00;0.62;0.00;0.00;0.62;1.97;1.00;;;22.30;27.50;;;;;;2241608;62;20363;-62